KDMO

Details ICAO KDMO
Name SEDALIA MEM
Region United States
Timezone America/Chicago (UTC-5.0)
Plans Departing 1
Arriving 3
Stats Elevation 909 ft / 277 m (AMSL)
Location 38.706880° -93.176821°
Runways 2
Magnetic Variation 0.627° E
Sunrise 2018-05-21 10:57:17 UTC / 2018-05-21 05:57:17 Local
Sunset 2018-05-22 01:24:12 UTC / 2018-05-21 20:24:12 Local
Advertisement - Login to hide

Runways

ID Width Length Bearing (true) Bearing (mag) Surface Threshold Offset Overrun Length
05 50 ft / 15 m 3,517 ft / 1,072 m 54.35° 53.72° Asphalt 0 ft / 0 m 0 ft / 0 m
18 100 ft / 30 m 5,512 ft / 1,680 m 181.68° 181.05° Concrete 0 ft / 0 m 0 ft / 0 m
23 50 ft / 15 m 3,517 ft / 1,072 m 234.36° 233.73° Asphalt 0 ft / 0 m 0 ft / 0 m
36 100 ft / 30 m 5,512 ft / 1,680 m 1.68° 1.05° Concrete 0 ft / 0 m 0 ft / 0 m

Map

Weather


0- 5 10 15 20 25 30 35+ Temperature / ° C

Clouds and Precipitation
Forecast for 2018-05-22 00:00 UTC. Updated 2 hours ago

Ground ~20,000 ft ~40,000 ft Winds

METAR

KDMO 220053Z AUTO 27003KT 10SM FEW035 23/18 A3001 RMK AO2 SLP155 T02280178 TSNO $

TAF

Not found

Frequencies

Recorded 120.52 MHz ASOS
Approach 127.45 MHz WHITEMAN APP
Unicom 122.80 MHz CTAF/UNICOM
Departure 125.92 MHz WHITEMAN DEP
Warning: Do not use this data for real-world aviation or navigation. No guarantee of current accuracy is given.